Time;durP1;ratioP1;P1;durP2;ratioP2;P2;SDS_P1;SDS_P2;PMS_P1;PMS_P2;Temp;Humidity;BMP_temperature;BMP_pressure;BME280_temperature;BME280_humidity;BME280_pressure;Samples;Min_cycle;Max_cycle;Signal;HPM_P1;HPM_P2
2023/05/20 00:00:35;;;;;;;2.00;1.80;;;19.00;62.10;;;;;;5004324;28;20215;-65
2023/05/20 00:03:00;;;;;;;1.85;1.70;;;19.00;62.10;;;;;;5004003;28;20203;-65
2023/05/20 00:05:26;;;;;;;2.00;1.90;;;19.00;62.20;;;;;;5020329;28;20226;-64
2023/05/20 00:07:53;;;;;;;2.65;1.90;;;19.00;62.20;;;;;;5001343;28;20934;-65
2023/05/20 00:10:19;;;;;;;2.28;2.08;;;18.90;62.00;;;;;;5014445;28;20283;-65
2023/05/20 00:12:44;;;;;;;2.10;1.92;;;18.90;62.00;;;;;;5002964;28;20207;-64
2023/05/20 00:15:13;;;;;;;2.10;1.90;;;19.00;62.10;;;;;;5021381;28;20188;-64
2023/05/20 00:17:39;;;;;;;2.25;2.03;;;19.00;62.10;;;;;;4995458;28;20205;-64
2023/05/20 00:20:06;;;;;;;1.75;1.65;;;19.00;62.10;;;;;;5008334;28;20653;-65
2023/05/20 00:22:31;;;;;;;2.00;1.90;;;19.00;62.20;;;;;;5003944;28;20246;-65
2023/05/20 00:24:57;;;;;;;2.88;2.03;;;19.00;62.20;;;;;;4992302;28;20197;-64
2023/05/20 00:27:23;;;;;;;2.00;1.80;;;18.90;62.10;;;;;;5006096;28;20302;-65
2023/05/20 00:29:49;;;;;;;2.65;1.95;;;18.90;62.10;;;;;;5010292;28;20197;-64
2023/05/20 00:32:15;;;;;;;1.92;1.63;;;18.90;62.10;;;;;;4992437;28;20188;-64
2023/05/20 00:34:42;;;;;;;2.53;1.90;;;18.90;62.10;;;;;;5000640;28;20192;-65
2023/05/20 00:37:08;;;;;;;2.25;2.00;;;18.90;62.10;;;;;;5015665;28;20213;-65
2023/05/20 00:39:34;;;;;;;2.03;1.92;;;18.90;62.10;;;;;;5016213;28;20685;-64
2023/05/20 00:42:02;;;;;;;2.63;2.05;;;18.90;62.10;;;;;;5000401;28;20193;-65
2023/05/20 00:44:28;;;;;;;2.03;1.88;;;18.90;62.10;;;;;;4992219;28;20173;-63
2023/05/20 00:46:54;;;;;;;2.28;2.08;;;19.00;62.20;;;;;;5008250;28;20224;-65
2023/05/20 00:49:22;;;;;;;1.80;1.70;;;18.90;62.20;;;;;;5000116;28;20192;-65
2023/05/20 00:51:48;;;;;;;1.70;1.60;;;19.00;62.20;;;;;;4991943;28;20181;-65
2023/05/20 00:54:14;;;;;;;2.58;1.80;;;18.90;62.20;;;;;;4999993;28;20216;-65
2023/05/20 00:56:41;;;;;;;2.00;1.90;;;18.90;62.10;;;;;;4999577;28;20283;-65
2023/05/20 00:59:08;;;;;;;2.05;1.90;;;18.90;62.20;;;;;;5005438;28;20216;-65
2023/05/20 01:01:34;;;;;;;1.77;1.67;;;18.90;62.20;;;;;;5007205;28;20196;-65
2023/05/20 01:04:00;;;;;;;2.35;1.70;;;18.90;62.20;;;;;;5011054;28;20199;-65
2023/05/20 01:06:27;;;;;;;2.00;1.90;;;18.90;62.20;;;;;;4994881;28;20231;-65
2023/05/20 01:08:53;;;;;;;2.00;1.90;;;18.90;62.20;;;;;;5011155;28;20214;-65
2023/05/20 01:11:33;;;;;;;2.10;1.95;;;18.90;62.20;;;;;;4991499;28;20189;-65
2023/05/20 01:14:06;;;;;;;1.92;1.77;;;18.90;62.20;;;;;;4999646;28;20191;-65
2023/05/20 01:16:34;;;;;;;2.00;1.83;;;18.90;62.20;;;;;;5006517;28;20286;-65
2023/05/20 01:19:04;;;;;;;1.80;1.70;;;18.90;62.20;;;;;;5008376;28;20188;-64
2023/05/20 01:21:32;;;;;;;2.05;1.85;;;18.90;62.30;;;;;;4991481;28;20185;-65
2023/05/20 01:24:00;;;;;;;1.70;1.60;;;18.90;63.10;;;;;;5001924;28;20197;-64
2023/05/20 01:26:26;;;;;;;2.15;1.95;;;19.00;62.30;;;;;;5019073;28;20263;-64
2023/05/20 01:28:52;;;;;;;1.90;1.80;;;18.90;62.30;;;;;;5017871;28;20223;-64
2023/05/20 01:31:24;;;;;;;1.70;1.60;;;18.90;62.30;;;;;;5021308;28;20191;-65
2023/05/20 01:33:58;;;;;;;1.92;1.83;;;18.90;62.30;;;;;;5011027;28;20682;-64
2023/05/20 01:36:27;;;;;;;1.85;1.75;;;18.90;62.30;;;;;;5025559;28;20217;-64
2023/05/20 01:38:54;;;;;;;1.90;1.80;;;18.90;62.30;;;;;;5012892;28;20188;-65
2023/05/20 01:41:25;;;;;;;2.00;1.90;;;18.90;62.30;;;;;;5001571;28;20799;-65
2023/05/20 01:43:52;;;;;;;1.85;1.75;;;18.90;62.30;;;;;;5012795;28;20199;-65
2023/05/20 01:46:18;;;;;;;2.20;2.03;;;18.90;63.10;;;;;;5006437;28;20223;-65
2023/05/20 01:48:44;;;;;;;1.83;1.73;;;18.90;62.30;;;;;;5014772;28;20200;-65
2023/05/20 01:51:10;;;;;;;1.90;1.80;;;18.90;62.40;;;;;;5011024;28;20189;-64
2023/05/20 01:53:35;;;;;;;1.90;1.80;;;18.90;62.40;;;;;;5010338;28;20189;-65
2023/05/20 01:56:02;;;;;;;2.67;1.95;;;18.90;63.20;;;;;;5022575;28;20219;-65
2023/05/20 01:58:28;;;;;;;1.90;1.80;;;18.90;62.40;;;;;;5008253;28;20189;-65
2023/05/20 02:00:54;;;;;;;2.25;1.60;;;18.90;62.40;;;;;;5004461;28;20259;-65
2023/05/20 02:03:21;;;;;;;1.80;1.70;;;18.90;62.40;;;;;;5030563;28;20188;-64
2023/05/20 02:05:46;;;;;;;2.13;1.90;;;18.90;62.40;;;;;;5006084;28;20209;-65
2023/05/20 02:08:12;;;;;;;2.00;1.90;;;18.90;62.40;;;;;;5005993;28;20739;-65
2023/05/20 02:10:38;;;;;;;2.00;1.90;;;18.90;62.40;;;;;;5030895;28;20184;-65
2023/05/20 02:13:04;;;;;;;2.13;1.92;;;18.90;62.40;;;;;;5026910;28;20192;-65
2023/05/20 02:15:30;;;;;;;1.85;1.75;;;18.90;62.50;;;;;;4997679;28;20200;-64
2023/05/20 02:17:56;;;;;;;1.90;1.80;;;18.90;62.50;;;;;;4997424;28;20194;-65
2023/05/20 02:20:22;;;;;;;1.88;1.77;;;18.90;62.50;;;;;;4998159;28;20196;-63
2023/05/20 02:22:48;;;;;;;1.50;1.40;;;18.90;62.50;;;;;;4997134;28;20204;-64
2023/05/20 02:25:14;;;;;;;3.33;1.80;;;18.90;62.50;;;;;;4998420;28;20220;-65
2023/05/20 02:27:40;;;;;;;1.65;1.55;;;18.90;62.50;;;;;;5021866;28;20615;-65
2023/05/20 02:30:07;;;;;;;1.85;1.75;;;18.90;62.50;;;;;;5003393;28;20207;-65
2023/05/20 02:32:32;;;;;;;2.03;1.88;;;18.90;62.50;;;;;;5002603;28;20260;-64
2023/05/20 02:34:58;;;;;;;1.73;1.63;;;18.90;62.50;;;;;;5019149;28;20192;-64
2023/05/20 02:37:24;;;;;;;1.70;1.60;;;18.90;62.50;;;;;;5023866;28;20331;-65
2023/05/20 02:39:50;;;;;;;3.05;1.77;;;18.90;62.50;;;;;;4997373;28;20232;-65
2023/05/20 02:42:16;;;;;;;1.80;1.70;;;18.90;62.50;;;;;;5001531;28;20196;-64
2023/05/20 02:44:42;;;;;;;1.95;1.80;;;18.90;62.50;;;;;;5009782;28;20196;-65
2023/05/20 02:47:09;;;;;;;1.80;1.70;;;18.90;62.60;;;;;;4996611;28;20230;-64
2023/05/20 02:49:34;;;;;;;1.88;1.77;;;18.90;62.50;;;;;;4993581;28;20195;-65
2023/05/20 02:52:01;;;;;;;2.13;1.90;;;18.90;62.60;;;;;;4996330;28;20183;-65
2023/05/20 02:54:27;;;;;;;1.90;1.80;;;18.90;62.60;;;;;;5013663;28;20242;-65
2023/05/20 02:56:53;;;;;;;1.70;1.60;;;18.90;62.60;;;;;;4994603;28;20307;-65
2023/05/20 02:59:18;;;;;;;2.08;1.88;;;18.90;62.60;;;;;;5009319;28;20196;-65
2023/05/20 03:01:44;;;;;;;1.88;1.77;;;18.90;62.60;;;;;;5009517;28;20199;-64
2023/05/20 03:04:10;;;;;;;2.20;2.00;;;18.90;62.60;;;;;;5013172;28;20187;-65
2023/05/20 03:06:37;;;;;;;2.33;2.13;;;18.90;62.60;;;;;;5012939;28;20220;-65
2023/05/20 03:09:03;;;;;;;3.15;2.42;;;18.90;62.60;;;;;;5013304;28;20180;-65
2023/05/20 03:11:29;;;;;;;1.73;1.63;;;18.90;62.70;;;;;;5007414;28;20193;-65
2023/05/20 03:13:54;;;;;;;1.88;1.77;;;18.90;62.70;;;;;;5019122;28;20189;-65
2023/05/20 03:16:20;;;;;;;2.25;2.08;;;18.90;62.70;;;;;;4996467;28;20204;-64
2023/05/20 03:18:47;;;;;;;2.08;1.98;;;18.90;62.70;;;;;;4996546;28;20226;-65
2023/05/20 03:21:13;;;;;;;1.90;1.80;;;18.90;62.70;;;;;;5004906;28;20191;-65
2023/05/20 03:23:39;;;;;;;2.05;1.95;;;18.80;62.60;;;;;;5029320;28;20184;-65
2023/05/20 03:26:05;;;;;;;1.88;1.77;;;18.90;62.70;;;;;;5020754;28;20208;-64
2023/05/20 03:28:32;;;;;;;2.10;1.90;;;18.90;62.70;;;;;;5012558;28;20265;-65
2023/05/20 03:30:58;;;;;;;1.90;1.80;;;18.90;62.70;;;;;;5021208;28;20672;-64
2023/05/20 03:33:25;;;;;;;1.90;1.80;;;18.90;62.70;;;;;;4993273;28;20193;-66
2023/05/20 03:35:51;;;;;;;1.92;1.83;;;18.90;62.70;;;;;;4993411;28;20205;-64
2023/05/20 03:38:17;;;;;;;2.10;1.90;;;18.90;62.70;;;;;;4996096;28;20246;-65
2023/05/20 03:40:42;;;;;;;3.45;2.05;;;18.90;62.70;;;;;;5012902;28;20192;-64
2023/05/20 03:43:08;;;;;;;2.00;1.90;;;18.90;62.70;;;;;;5012835;28;20275;-65
2023/05/20 03:45:34;;;;;;;2.30;2.10;;;18.90;62.70;;;;;;5012401;28;20211;-64
2023/05/20 03:48:04;;;;;;;1.80;1.70;;;18.90;62.70;;;;;;5012024;28;20722;-65
2023/05/20 03:50:32;;;;;;;1.92;1.83;;;18.90;62.80;;;;;;5012262;28;20255;-64
2023/05/20 03:52:59;;;;;;;1.90;1.80;;;18.90;62.70;;;;;;5020466;28;20189;-64
2023/05/20 03:55:26;;;;;;;1.85;1.75;;;18.90;62.70;;;;;;5012106;28;20220;-65
2023/05/20 03:57:53;;;;;;;2.47;2.00;;;18.90;62.80;;;;;;5011565;28;20572;-64
2023/05/20 04:00:18;;;;;;;2.10;2.00;;;18.90;62.70;;;;;;4992603;28;20672;-65
2023/05/20 04:02:44;;;;;;;1.80;1.70;;;18.90;62.80;;;;;;5012518;28;20257;-64
2023/05/20 04:05:13;;;;;;;2.10;2.00;;;18.90;62.80;;;;;;4995389;28;20184;-65
2023/05/20 04:07:40;;;;;;;1.90;1.80;;;18.90;62.80;;;;;;5011760;28;20350;-65
2023/05/20 04:10:08;;;;;;;1.75;1.65;;;18.90;62.80;;;;;;5012093;28;20188;-65
2023/05/20 04:12:35;;;;;;;2.10;2.00;;;18.90;62.80;;;;;;5012257;28;20184;-65
2023/05/20 04:15:02;;;;;;;1.83;1.73;;;18.90;62.80;;;;;;4995459;28;20707;-64
2023/05/20 04:17:32;;;;;;;2.28;2.10;;;18.90;62.90;;;;;;4992044;28;20200;-64
2023/05/20 04:19:58;;;;;;;2.10;1.85;;;18.90;62.90;;;;;;5009798;28;20219;-65
2023/05/20 04:22:25;;;;;;;2.17;2.08;;;18.90;62.80;;;;;;4992223;28;20188;-65
2023/05/20 04:24:51;;;;;;;2.10;2.00;;;18.90;62.80;;;;;;4991956;28;20285;-65
2023/05/20 04:27:17;;;;;;;2.30;2.10;;;18.90;62.90;;;;;;5011621;28;20223;-64
2023/05/20 04:29:46;;;;;;;2.20;2.10;;;18.90;62.90;;;;;;5011777;28;20210;-65
2023/05/20 04:32:13;;;;;;;2.28;2.13;;;18.80;62.80;;;;;;5028092;28;20192;-65
2023/05/20 04:34:39;;;;;;;2.28;2.17;;;18.90;62.90;;;;;;5021652;28;20200;-65
2023/05/20 04:37:08;;;;;;;2.10;2.00;;;18.80;62.80;;;;;;5026074;28;20453;-65
2023/05/20 04:39:35;;;;;;;2.00;1.90;;;18.80;62.80;;;;;;5011637;28;20275;-65
2023/05/20 04:42:02;;;;;;;2.15;2.05;;;18.90;62.90;;;;;;5011426;28;20192;-65
2023/05/20 04:44:28;;;;;;;2.25;2.05;;;18.80;62.80;;;;;;5011418;28;20279;-65
2023/05/20 04:46:58;;;;;;;2.13;1.92;;;18.80;62.80;;;;;;5011430;28;20699;-64
2023/05/20 04:49:25;;;;;;;2.20;2.00;;;18.80;62.80;;;;;;4995012;28;20194;-65
2023/05/20 04:51:53;;;;;;;1.67;1.58;;;18.80;63.20;;;;;;4994988;28;20180;-64
2023/05/20 04:54:19;;;;;;;2.58;2.38;;;18.90;62.90;;;;;;4995254;28;20188;-65
2023/05/20 04:56:45;;;;;;;1.95;1.85;;;18.80;62.90;;;;;;4994571;28;20218;-64
2023/05/20 04:59:12;;;;;;;2.50;2.30;;;18.80;62.90;;;;;;5019740;28;20189;-64
2023/05/20 05:01:39;;;;;;;2.10;2.00;;;18.80;62.90;;;;;;4994907;28;20198;-65
2023/05/20 05:04:05;;;;;;;2.50;2.30;;;18.80;62.90;;;;;;4994672;28;20605;-64
2023/05/20 05:06:31;;;;;;;2.38;2.20;;;18.80;62.90;;;;;;5011149;28;20214;-64
2023/05/20 05:08:58;;;;;;;2.25;2.05;;;18.90;63.00;;;;;;5013932;28;20200;-64
2023/05/20 05:11:25;;;;;;;2.10;2.00;;;18.80;62.80;;;;;;5001382;28;20194;-65
2023/05/20 05:13:51;;;;;;;2.05;1.90;;;18.80;62.90;;;;;;5017602;28;20183;-65
2023/05/20 05:16:19;;;;;;;2.30;2.20;;;18.80;62.90;;;;;;5018141;28;20207;-64
2023/05/20 05:18:45;;;;;;;2.45;2.20;;;18.80;62.90;;;;;;5001213;28;20188;-64
2023/05/20 05:21:11;;;;;;;2.35;2.20;;;18.80;62.90;;;;;;5000026;28;20188;-65
2023/05/20 05:23:37;;;;;;;1.95;1.85;;;18.80;63.00;;;;;;5017551;28;20186;-65
2023/05/20 05:26:03;;;;;;;2.33;2.13;;;18.80;62.90;;;;;;5017357;28;20208;-64
2023/05/20 05:28:29;;;;;;;2.30;2.13;;;18.90;63.10;;;;;;4997597;28;20208;-64
2023/05/20 05:30:55;;;;;;;2.50;2.30;;;18.80;63.00;;;;;;4997689;28;20230;-64
2023/05/20 05:33:21;;;;;;;2.53;2.28;;;18.80;63.00;;;;;;5001136;28;20222;-63
2023/05/20 05:35:47;;;;;;;2.40;2.20;;;18.80;63.00;;;;;;5017350;28;20204;-64
2023/05/20 05:38:13;;;;;;;2.70;2.50;;;18.80;63.00;;;;;;5017510;28;20194;-64
2023/05/20 05:40:40;;;;;;;2.40;2.30;;;18.80;63.00;;;;;;5001151;28;20192;-65
2023/05/20 05:43:06;;;;;;;2.55;2.35;;;18.80;63.00;;;;;;5001324;28;20219;-65
2023/05/20 05:45:33;;;;;;;2.50;2.30;;;18.80;63.00;;;;;;5001370;28;20215;-65
2023/05/20 05:47:59;;;;;;;2.10;2.00;;;18.80;63.00;;;;;;5000680;28;20223;-64
2023/05/20 05:50:25;;;;;;;3.08;2.78;;;18.80;63.00;;;;;;5001157;28;20234;-64
2023/05/20 05:52:51;;;;;;;2.42;2.25;;;18.80;63.00;;;;;;5017700;28;20209;-64
2023/05/20 05:55:17;;;;;;;2.45;2.25;;;18.80;63.00;;;;;;5000855;28;20184;-64
2023/05/20 05:57:44;;;;;;;2.30;2.20;;;18.80;63.00;;;;;;5000788;28;20191;-65
2023/05/20 06:00:13;;;;;;;2.47;2.33;;;18.90;63.10;;;;;;4999603;28;20188;-65
2023/05/20 06:02:46;;;;;;;2.33;2.17;;;18.90;63.10;;;;;;5013552;28;20211;-65
2023/05/20 06:05:21;;;;;;;2.22;2.13;;;18.80;63.00;;;;;;5017060;28;20275;-64
2023/05/20 06:07:47;;;;;;;2.67;2.47;;;18.90;63.00;;;;;;5018681;28;20222;-65
2023/05/20 06:10:13;;;;;;;3.13;2.35;;;18.80;62.90;;;;;;5015411;28;20191;-64
2023/05/20 06:12:39;;;;;;;2.50;2.30;;;18.90;63.00;;;;;;5017449;28;20211;-66
2023/05/20 06:15:06;;;;;;;3.20;2.70;;;18.90;63.00;;;;;;5012864;28;20180;-65
2023/05/20 06:17:32;;;;;;;2.50;2.30;;;18.90;63.00;;;;;;5011051;28;20202;-64
2023/05/20 06:19:58;;;;;;;2.65;2.45;;;18.90;63.10;;;;;;4999626;28;20283;-65
2023/05/20 06:22:24;;;;;;;2.75;2.55;;;18.90;63.00;;;;;;4994545;28;20185;-65
2023/05/20 06:24:50;;;;;;;2.63;2.42;;;18.90;63.00;;;;;;5009594;28;20210;-66
2023/05/20 06:27:16;;;;;;;3.10;2.80;;;18.90;63.00;;;;;;5013556;28;20252;-66
2023/05/20 06:29:42;;;;;;;2.90;2.70;;;18.90;63.00;;;;;;5012890;28;20184;-65
2023/05/20 06:32:08;;;;;;;2.80;2.60;;;18.90;63.10;;;;;;5022768;28;20212;-66
2023/05/20 06:34:34;;;;;;;3.30;2.70;;;18.90;63.10;;;;;;5013682;28;20206;-66
2023/05/20 06:37:00;;;;;;;2.70;2.50;;;18.90;63.10;;;;;;5013645;28;20562;-65
2023/05/20 06:39:25;;;;;;;2.78;2.58;;;18.90;63.10;;;;;;5013790;28;20202;-66
2023/05/20 06:41:51;;;;;;;2.88;2.67;;;18.90;63.10;;;;;;4997358;28;20737;-65
2023/05/20 06:44:26;;;;;;;3.75;2.70;;;18.90;63.10;;;;;;5005737;28;20214;-65
2023/05/20 06:47:00;;;;;;;2.60;2.40;;;18.90;63.10;;;;;;4997956;28;20211;-65
2023/05/20 06:49:27;;;;;;;3.33;2.88;;;18.90;63.10;;;;;;5029961;28;20196;-65
2023/05/20 06:51:53;;;;;;;2.75;2.55;;;18.90;63.00;;;;;;5026838;28;20185;-66
2023/05/20 06:54:20;;;;;;;2.30;2.20;;;18.90;63.00;;;;;;5012575;28;20194;-64
2023/05/20 06:56:47;;;;;;;2.80;2.60;;;18.90;63.00;;;;;;5016274;28;20223;-64
2023/05/20 06:59:14;;;;;;;3.55;2.90;;;18.90;63.00;;;;;;4997416;28;20275;-64
2023/05/20 07:01:39;;;;;;;2.67;2.47;;;18.90;63.00;;;;;;5029857;28;20292;-65
2023/05/20 07:04:06;;;;;;;3.38;2.50;;;18.90;63.00;;;;;;5013058;28;20191;-64
2023/05/20 07:06:32;;;;;;;2.85;2.50;;;18.90;63.00;;;;;;5012934;28;20227;-65
2023/05/20 07:08:59;;;;;;;5.10;2.88;;;18.90;62.90;;;;;;4993769;28;20189;-65
2023/05/20 07:11:25;;;;;;;2.90;2.58;;;18.90;63.00;;;;;;4996940;28;20210;-65
2023/05/20 07:13:52;;;;;;;2.97;2.78;;;18.90;63.00;;;;;;5013004;28;20188;-64
2023/05/20 07:16:18;;;;;;;3.03;2.83;;;18.90;63.00;;;;;;5007314;28;20571;-65
2023/05/20 07:18:49;;;;;;;3.00;2.80;;;18.90;63.00;;;;;;4997438;28;20188;-65
2023/05/20 07:21:14;;;;;;;3.25;2.95;;;19.00;63.10;;;;;;5012803;28;20184;-65
2023/05/20 07:23:52;;;;;;;3.17;2.90;;;18.90;63.00;;;;;;5014530;28;20195;-65
2023/05/20 07:26:18;;;;;;;2.97;2.78;;;19.00;63.10;;;;;;5012503;28;20212;-64
2023/05/20 07:28:45;;;;;;;2.40;2.30;;;18.90;63.00;;;;;;5015431;28;20199;-65
2023/05/20 07:31:12;;;;;;;2.88;2.67;;;19.00;63.10;;;;;;5012744;28;20219;-66
2023/05/20 07:33:42;;;;;;;2.65;2.45;;;18.90;63.00;;;;;;5012010;28;20192;-65
2023/05/20 07:36:08;;;;;;;2.97;2.78;;;19.00;63.10;;;;;;4993592;28;20684;-65
2023/05/20 07:38:34;;;;;;;2.90;2.70;;;19.00;63.10;;;;;;5012338;28;20242;-65
2023/05/20 07:41:04;;;;;;;3.75;3.25;;;19.00;63.20;;;;;;5012561;28;20192;-65
2023/05/20 07:43:30;;;;;;;3.17;2.97;;;19.00;63.10;;;;;;5028930;28;20253;-65
2023/05/20 07:45:57;;;;;;;3.38;2.90;;;19.00;63.20;;;;;;5028935;28;20208;-65
2023/05/20 07:48:23;;;;;;;2.90;2.70;;;19.00;63.10;;;;;;5019875;28;20243;-65
2023/05/20 07:50:49;;;;;;;3.20;2.90;;;19.00;63.10;;;;;;4996561;28;20191;-65
2023/05/20 07:53:16;;;;;;;3.13;2.70;;;19.00;63.20;;;;;;5012579;28;20353;-66
2023/05/20 07:55:43;;;;;;;3.20;3.00;;;19.00;63.10;;;;;;5012583;28;20199;-66
2023/05/20 07:58:09;;;;;;;3.03;2.83;;;19.00;63.20;;;;;;4995716;28;20198;-66
2023/05/20 08:00:35;;;;;;;2.88;2.67;;;19.00;63.20;;;;;;5012106;28;20200;-65
2023/05/20 08:03:04;;;;;;;3.08;2.85;;;19.00;63.10;;;;;;5020876;28;20192;-65
2023/05/20 08:05:40;;;;;;;3.30;3.10;;;19.00;63.10;;;;;;5006696;28;20208;-65
2023/05/20 08:08:09;;;;;;;4.07;3.67;;;19.00;63.10;;;;;;4995363;28;20702;-65
2023/05/20 08:10:45;;;;;;;3.58;3.28;;;19.00;63.60;;;;;;4992465;28;20188;-66
2023/05/20 08:13:11;;;;;;;3.10;2.90;;;19.00;63.10;;;;;;4993360;28;20246;-65
2023/05/20 08:15:37;;;;;;;2.97;2.78;;;19.00;63.10;;;;;;4992226;28;20291;-65
2023/05/20 08:18:03;;;;;;;3.90;3.60;;;19.10;63.20;;;;;;4992065;28;20192;-65
2023/05/20 08:20:30;;;;;;;3.28;3.08;;;19.10;63.10;;;;;;5000515;28;20276;-65
2023/05/20 08:22:56;;;;;;;3.63;3.33;;;19.10;63.10;;;;;;5007176;28;20746;-65
2023/05/20 08:25:23;;;;;;;3.55;3.30;;;19.10;63.00;;;;;;4995284;28;20195;-65
2023/05/20 08:27:50;;;;;;;3.60;3.30;;;19.10;63.10;;;;;;4991811;28;20213;-65
2023/05/20 08:30:16;;;;;;;3.67;3.38;;;19.10;63.10;;;;;;5003646;28;20195;-65
2023/05/20 08:32:41;;;;;;;3.83;3.47;;;19.10;63.10;;;;;;4995456;28;20639;-65
2023/05/20 08:35:08;;;;;;;3.58;3.28;;;19.10;63.10;;;;;;5019807;28;20189;-64
2023/05/20 08:37:34;;;;;;;3.55;3.25;;;19.10;63.10;;;;;;4991846;28;20257;-65
2023/05/20 08:40:00;;;;;;;3.58;3.30;;;19.10;63.10;;;;;;5007347;28;20210;-65
2023/05/20 08:42:26;;;;;;;3.45;3.20;;;19.10;63.20;;;;;;5027895;28;20647;-66
2023/05/20 08:44:56;;;;;;;3.50;3.20;;;19.10;63.10;;;;;;5019345;28;20192;-65
2023/05/20 08:47:25;;;;;;;4.00;3.40;;;19.10;63.20;;;;;;4994732;28;20311;-64
2023/05/20 08:49:50;;;;;;;3.40;3.20;;;19.10;63.30;;;;;;4994992;28;20243;-64
2023/05/20 08:52:21;;;;;;;3.50;3.20;;;19.10;63.20;;;;;;4994789;28;20192;-65
2023/05/20 08:54:50;;;;;;;3.67;3.38;;;19.10;63.30;;;;;;5019777;28;20192;-65
2023/05/20 08:57:16;;;;;;;3.67;3.38;;;19.10;63.30;;;;;;4994809;28;20212;-66
2023/05/20 08:59:45;;;;;;;3.97;3.60;;;19.20;63.40;;;;;;4991935;28;20232;-65
2023/05/20 09:02:12;;;;;;;3.55;3.25;;;19.10;63.30;;;;;;4991841;28;20690;-66
2023/05/20 09:04:38;;;;;;;3.50;3.28;;;19.20;63.40;;;;;;4994943;28;20187;-66
2023/05/20 09:07:05;;;;;;;4.07;3.60;;;19.20;63.40;;;;;;4994901;28;20215;-65
2023/05/20 09:09:33;;;;;;;3.72;3.47;;;19.20;63.30;;;;;;5011171;28;20203;-65
2023/05/20 09:12:02;;;;;;;4.03;3.65;;;19.20;63.30;;;;;;5011240;28;20238;-65
2023/05/20 09:14:29;;;;;;;3.60;3.30;;;19.30;63.40;;;;;;5000656;28;20188;-65
2023/05/20 09:16:55;;;;;;;3.67;3.40;;;19.30;63.40;;;;;;5014051;28;20207;-65
2023/05/20 09:19:23;;;;;;;3.88;3.58;;;19.30;63.40;;;;;;5003276;28;20227;-65
2023/05/20 09:21:52;;;;;;;3.22;2.95;;;19.30;63.50;;;;;;5011096;28;20241;-65
2023/05/20 09:24:25;;;;;;;4.55;3.30;;;19.30;63.80;;;;;;5011217;28;20187;-65
2023/05/20 09:26:51;;;;;;;4.25;3.85;;;19.30;63.90;;;;;;5027511;28;20219;-65
2023/05/20 09:29:20;;;;;;;4.95;3.55;;;19.30;63.90;;;;;;5019270;28;20268;-64
2023/05/20 09:31:46;;;;;;;3.63;3.33;;;19.30;64.00;;;;;;4991513;28;20648;-65
2023/05/20 09:34:12;;;;;;;3.63;3.33;;;19.30;64.00;;;;;;4999773;28;20188;-65
2023/05/20 09:36:40;;;;;;;4.30;3.90;;;19.30;64.00;;;;;;5023120;28;20270;-63
2023/05/20 09:39:15;;;;;;;3.72;3.28;;;19.30;64.00;;;;;;5007438;28;20184;-65
2023/05/20 09:41:55;;;;;;;4.25;3.78;;;19.30;64.10;;;;;;4994730;28;20184;-65
2023/05/20 09:44:22;;;;;;;3.75;3.42;;;19.30;64.10;;;;;;5010732;28;20227;-65
2023/05/20 09:46:49;;;;;;;4.03;3.72;;;19.20;64.00;;;;;;4994135;28;20208;-65
2023/05/20 09:49:16;;;;;;;4.28;3.85;;;19.30;64.10;;;;;;4994596;28;20554;-63
2023/05/20 09:51:44;;;;;;;4.10;3.70;;;19.30;64.10;;;;;;5027285;28;20176;-66
2023/05/20 09:54:12;;;;;;;3.80;3.42;;;19.30;64.10;;;;;;5015795;28;20187;-65
2023/05/20 09:56:41;;;;;;;3.72;3.42;;;19.30;64.20;;;;;;5005402;28;20212;-63
2023/05/20 09:59:08;;;;;;;4.45;3.85;;;19.30;64.10;;;;;;4997879;28;20187;-66
2023/05/20 10:01:34;;;;;;;5.07;3.90;;;19.30;64.20;;;;;;4997827;28;20194;-65
2023/05/20 10:04:01;;;;;;;3.90;3.40;;;19.30;64.10;;;;;;4998177;28;20561;-64
2023/05/20 10:07:05;;;;;;;5.07;3.60;;;19.30;64.10;;;;;;4996332;28;20247;-65
2023/05/20 10:09:39;;;;;;;3.85;3.45;;;19.30;64.10;;;;;;5014113;28;20228;-65
2023/05/20 10:12:37;;;;;;;3.90;3.58;;;19.30;64.10;;;;;;4994442;28;20180;-65
2023/05/20 10:15:25;;;;;;;4.28;3.70;;;19.30;64.10;;;;;;5006995;28;20212;-64
2023/05/20 10:18:48;;;;;;;4.20;3.80;;;19.30;64.10;;;;;;5024337;28;20274;-65
2023/05/20 10:21:17;;;;;;;4.40;4.00;;;19.30;64.50;;;;;;5029379;28;20206;-64
2023/05/20 10:23:43;;;;;;;4.22;3.83;;;19.30;64.60;;;;;;4997605;28;20191;-65
2023/05/20 10:26:09;;;;;;;3.67;3.38;;;19.30;64.90;;;;;;5013851;28;20196;-65
2023/05/20 10:28:37;;;;;;;3.85;3.45;;;19.30;65.00;;;;;;5013075;28;20274;-65
2023/05/20 10:31:20;;;;;;;4.72;4.18;;;19.30;65.00;;;;;;5030001;28;20188;-64
2023/05/20 10:33:47;;;;;;;4.55;4.15;;;19.30;65.00;;;;;;5013716;28;20233;-65
2023/05/20 10:36:29;;;;;;;4.18;3.63;;;19.30;65.10;;;;;;5013686;28;20299;-66
2023/05/20 10:38:58;;;;;;;4.22;3.80;;;19.30;65.10;;;;;;4997350;28;20184;-65
2023/05/20 10:41:28;;;;;;;4.57;3.78;;;19.30;65.10;;;;;;5013600;28;20176;-65
2023/05/20 10:44:05;;;;;;;4.18;3.88;;;19.30;65.30;;;;;;5015793;28;20180;-64
2023/05/20 10:46:33;;;;;;;3.83;3.53;;;19.30;65.20;;;;;;5013252;28;20254;-65
2023/05/20 10:49:02;;;;;;;4.25;3.88;;;19.30;65.30;;;;;;5016382;28;20243;-64
2023/05/20 10:51:30;;;;;;;3.85;3.50;;;19.30;66.00;;;;;;4997063;28;20191;-64
2023/05/20 10:53:57;;;;;;;4.10;3.78;;;19.30;65.00;;;;;;5021657;28;20600;-65
2023/05/20 10:56:25;;;;;;;4.38;3.53;;;19.30;65.10;;;;;;5013430;28;20727;-65
2023/05/20 10:58:53;;;;;;;4.75;4.30;;;19.30;65.20;;;;;;4996995;28;20186;-65
2023/05/20 11:01:25;;;;;;;3.83;3.53;;;19.30;65.40;;;;;;4996764;28;20188;-65
2023/05/20 11:03:54;;;;;;;4.75;4.22;;;19.30;65.10;;;;;;4993664;28;20196;-66
2023/05/20 11:06:27;;;;;;;4.38;3.97;;;19.30;65.00;;;;;;4994093;28;20200;-65
2023/05/20 11:08:53;;;;;;;4.00;3.58;;;19.30;65.00;;;;;;5021529;28;20196;-65
2023/05/20 11:11:20;;;;;;;4.00;3.70;;;19.30;65.00;;;;;;5029496;28;20182;-65
2023/05/20 11:13:50;;;;;;;4.05;3.60;;;19.30;64.90;;;;;;5021254;28;20188;-67
2023/05/20 11:16:16;;;;;;;3.55;3.28;;;19.30;65.00;;;;;;5029438;28;20295;-67
2023/05/20 11:18:42;;;;;;;3.95;3.53;;;19.30;65.10;;;;;;4997568;28;20215;-66
2023/05/20 11:21:08;;;;;;;4.47;3.20;;;19.30;65.30;;;;;;4993362;28;20259;-66
2023/05/20 11:23:33;;;;;;;4.53;4.13;;;19.30;65.20;;;;;;5006405;28;20220;-66
2023/05/20 11:26:00;;;;;;;5.97;3.33;;;19.30;65.10;;;;;;4993106;28;20243;-66
2023/05/20 11:28:26;;;;;;;3.95;3.65;;;19.30;65.30;;;;;;4992409;28;20223;-65
2023/05/20 11:30:52;;;;;;;4.13;3.70;;;19.30;65.00;;;;;;4991451;28;20196;-66
2023/05/20 11:33:18;;;;;;;4.40;4.00;;;19.30;65.00;;;;;;5026080;28;20580;-65
2023/05/20 11:35:48;;;;;;;3.95;3.53;;;19.30;65.00;;;;;;4996449;28;20206;-65
2023/05/20 11:38:15;;;;;;;4.50;3.90;;;19.30;65.00;;;;;;4993475;28;20185;-65
2023/05/20 11:40:53;;;;;;;3.92;3.63;;;19.30;65.10;;;;;;4996819;28;20250;-65
2023/05/20 11:43:20;;;;;;;3.78;3.45;;;19.40;65.10;;;;;;4992528;28;20269;-62
2023/05/20 11:45:53;;;;;;;4.40;4.00;;;19.40;65.00;;;;;;5009340;28;20208;-64
2023/05/20 11:48:20;;;;;;;4.20;3.80;;;19.40;64.80;;;;;;5006092;28;20204;-65
2023/05/20 11:50:47;;;;;;;4.10;3.67;;;19.40;65.00;;;;;;5012393;28;20188;-65
2023/05/20 11:53:21;;;;;;;3.88;3.58;;;19.40;65.10;;;;;;4996072;28;20274;-65
2023/05/20 11:55:58;;;;;;;5.03;3.92;;;19.40;65.10;;;;;;5012246;28;20207;-65
2023/05/20 11:58:30;;;;;;;4.30;3.90;;;19.40;64.80;;;;;;4995781;28;20192;-65
2023/05/20 12:00:56;;;;;;;4.90;3.83;;;19.40;64.80;;;;;;4992500;28;20199;-66
2023/05/20 12:03:22;;;;;;;4.15;3.78;;;19.40;64.90;;;;;;5010331;28;20188;-65
2023/05/20 12:05:49;;;;;;;4.30;3.63;;;19.40;65.00;;;;;;4992289;28;20213;-66
2023/05/20 12:08:15;;;;;;;3.72;3.42;;;19.40;65.00;;;;;;4988670;28;20219;-66
2023/05/20 12:10:41;;;;;;;4.28;3.88;;;19.40;65.10;;;;;;5024901;28;20226;-65
2023/05/20 12:13:07;;;;;;;4.65;4.20;;;19.40;65.20;;;;;;5011920;28;20273;-66
2023/05/20 12:15:37;;;;;;;3.92;3.60;;;19.40;65.10;;;;;;5011920;28;20208;-64
2023/05/20 12:18:03;;;;;;;4.78;4.38;;;19.40;65.00;;;;;;5015852;28;20264;-65
2023/05/20 12:20:30;;;;;;;4.55;3.72;;;19.40;65.00;;;;;;4995377;28;20227;-66
2023/05/20 12:22:57;;;;;;;4.25;3.85;;;19.40;64.90;;;;;;5011784;28;20278;-66
2023/05/20 12:25:23;;;;;;;4.47;3.67;;;19.40;65.10;;;;;;5010924;28;20184;-66
2023/05/20 12:27:49;;;;;;;3.90;3.60;;;19.40;65.10;;;;;;4995262;28;20223;-66
2023/05/20 12:30:21;;;;;;;4.07;3.60;;;19.40;65.00;;;;;;4992116;28;20227;-66
2023/05/20 12:32:49;;;;;;;4.35;3.95;;;19.40;65.00;;;;;;5004825;28;20188;-66
2023/05/20 12:35:15;;;;;;;5.88;3.50;;;19.40;65.10;;;;;;4991909;28;20552;-65
2023/05/20 12:37:42;;;;;;;3.47;3.28;;;19.40;65.10;;;;;;4987517;28;20184;-66
2023/05/20 12:40:11;;;;;;;4.20;3.80;;;19.40;65.10;;;;;;4995150;28;20184;-66
2023/05/20 12:42:40;;;;;;;6.22;3.75;;;19.40;65.00;;;;;;4994439;28;20192;-66
2023/05/20 12:45:08;;;;;;;3.80;3.50;;;19.40;65.40;;;;;;4994971;28;20219;-66
2023/05/20 12:47:34;;;;;;;3.85;3.55;;;19.40;65.30;;;;;;4995103;28;20207;-65
2023/05/20 12:50:02;;;;;;;4.38;3.97;;;19.40;65.10;;;;;;5011509;28;20188;-65